Meadview, AZ (86444)

12:27 AM MST on July 30, 2014 (GMT -0700)
Boulder City (KBVU) Elev 2201 ft | 35.95 °N, 114.86 °W | Change Station

Current weather conditions updated 12 minutes ago

Clear
Clear
84 °F
Feels Like 84 °F
N
4
Wind Variable Wind from NE

Today is forecast to be Cooler than yesterday.

Today
High -- | Low -- °F
--% Chance of Precip.
Yesterday
High -- | Low -- °F
Precip. -- in
5:43 AM 7:43 PM
Waxing Crescent, 10% visible
Pressure 29.96 in
Visibility 10.0 miles
Clouds Clear
Heat Index 84 °F
Dew Point 59 °F
Humidity 42%
Rainfall 0.00 in
Snow Depth Not available.
UV 0 out of 12
Pollen 5.00 out of 12
Air Quality Not available.
Flu Activity Not available.
METAR KBVU 300715Z AUTO 05003KT 10SM CLR 29/15 A2996 RMK AO2

More Conditions Fewer Conditions

Pressure 29.96 in
Visibility 10.0 miles
Clouds Clear
Heat Index 84 °F
Dew Point 59 °F
Humidity 42%
Rainfall 0.00 in
Snow Depth Not available.
UV 0 out of 12
Pollen 5.00 out of 12
Air Quality Not available.
Flu Activity Not available.
METAR KBVU 300715Z AUTO 05003KT 10SM CLR 29/15 A2996 RMK AO2

More Conditions Fewer Conditions

10-Day Weather Forecast

Almanac

Astronomy

Jul. 30, 2014 Rise Set
Actual Time 5:43 AM MST 7:43 PM MST
Civil Twilight 5:15 AM MST 8:11 PM MST
Nautical Twilight 4:40 AM MST 8:46 PM MST
Astronomical Twilight 4:03 AM MST 9:22 PM MST
Moon 9:10 AM MST 9:37 PM MST
Length of Visible Light 14h 56m
Length of Day
14h 00m
Tomorrow will be 1m 39s shorter.
Waxing Crescent, 10% of the Moon is Illuminated
Today
Waxing Crescent
Aug 3
First Quarter
Aug 10
Full
Aug 17
Last Quarter
Aug 25
New

Today's Extremes

State Highs State Lows

Community

WunderPhotos

Upload Photos

1,739,022 photos uploaded!

WunderBlogs® & News

By Dr. Jeff Masters
Director of Meteorology, Weather Underground
By Kari Strenfel
Meteorologist, Weather Underground
By Christopher C. Burt
Weather Historian, Weather Underground
July 29, 2014
July 29, 2014
July 29, 2014

Nearby

Snow Depth

Station Depth Elevation
Snowslide Canyon 0 in 9730 ft
White Horse Lake 0 in 7180 ft
Workman Creek 1 in 6900 ft
Maverick Fork 0 in 9200 ft
Wildcat 0 in 7850 ft

Earthquake Activity

City Distance Mag. Time & Date
No recent earthquake activity has been reported nearby.
Minimum magnitude displayed is 2.5.

Coastal Water Temperatures

Place Temperature
No Stations Reporting

Nearby Weather Stations

Station Location Temp. Heat Index Dew Point Humidity Wind Precip. Elev Updated Type
MesoWest DOLAN SPRINGS , Dolan Springs, AZ 86 °F 83 °F 48 °F 27% North  at  - 0.00 in / hr 3328 ft 11:52 PM MST MADIS

Show More Stations Show Fewer Stations